sensor_id;sensor_type;location;lat;lon;timestamp;temperature;humidity
15556;DHT22;7879;48.660;9.116;2023-07-09T00:01:19;20.80;99.90
15556;DHT22;7879;48.660;9.116;2023-07-09T00:03:47;20.80;99.90
15556;DHT22;7879;48.660;9.116;2023-07-09T00:06:20;20.80;99.90
15556;DHT22;7879;48.660;9.116;2023-07-09T00:08:49;20.70;99.90
15556;DHT22;7879;48.660;9.116;2023-07-09T00:11:16;20.60;99.90
15556;DHT22;7879;48.660;9.116;2023-07-09T00:13:44;20.50;99.90
15556;DHT22;7879;48.660;9.116;2023-07-09T00:16:14;20.50;99.90
15556;DHT22;7879;48.660;9.116;2023-07-09T00:18:41;20.40;99.90
15556;DHT22;7879;48.660;9.116;2023-07-09T00:21:08;20.40;99.90
15556;DHT22;7879;48.660;9.116;2023-07-09T00:23:35;20.40;99.90
15556;DHT22;7879;48.660;9.116;2023-07-09T00:26:09;20.30;99.90
15556;DHT22;7879;48.660;9.116;2023-07-09T00:28:36;20.30;99.90
15556;DHT22;7879;48.660;9.116;2023-07-09T00:31:03;20.30;99.90
15556;DHT22;7879;48.660;9.116;2023-07-09T00:33:30;20.10;99.90
15556;DHT22;7879;48.660;9.116;2023-07-09T00:35:58;20.00;99.90
15556;DHT22;7879;48.660;9.116;2023-07-09T00:38:27;20.00;99.90
15556;DHT22;7879;48.660;9.116;2023-07-09T00:41:05;20.00;99.90
15556;DHT22;7879;48.660;9.116;2023-07-09T00:43:35;19.90;99.90
15556;DHT22;7879;48.660;9.116;2023-07-09T00:47:14;19.80;99.90
15556;DHT22;7879;48.660;9.116;2023-07-09T00:49:07;19.80;99.90
15556;DHT22;7879;48.660;9.116;2023-07-09T00:51:40;19.70;99.90
15556;DHT22;7879;48.660;9.116;2023-07-09T00:54:23;19.80;99.90
15556;DHT22;7879;48.660;9.116;2023-07-09T00:57:06;19.80;99.90
15556;DHT22;7879;48.660;9.116;2023-07-09T00:59:36;19.70;99.90
15556;DHT22;7879;48.660;9.116;2023-07-09T01:02:05;19.70;99.90
15556;DHT22;7879;48.660;9.116;2023-07-09T01:04:32;19.60;99.90
15556;DHT22;7879;48.660;9.116;2023-07-09T01:07:00;19.60;99.90
15556;DHT22;7879;48.660;9.116;2023-07-09T01:09:27;19.60;99.90
15556;DHT22;7879;48.660;9.116;2023-07-09T01:11:54;19.50;99.90
15556;DHT22;7879;48.660;9.116;2023-07-09T01:14:24;19.50;99.90
15556;DHT22;7879;48.660;9.116;2023-07-09T01:16:56;19.50;99.90
15556;DHT22;7879;48.660;9.116;2023-07-09T01:19:27;19.40;99.90
15556;DHT22;7879;48.660;9.116;2023-07-09T01:22:00;19.30;99.90
15556;DHT22;7879;48.660;9.116;2023-07-09T01:25:03;19.30;99.90
15556;DHT22;7879;48.660;9.116;2023-07-09T01:27:38;19.20;99.90
15556;DHT22;7879;48.660;9.116;2023-07-09T01:30:11;19.20;99.90
15556;DHT22;7879;48.660;9.116;2023-07-09T01:32:41;19.10;99.90
15556;DHT22;7879;48.660;9.116;2023-07-09T01:35:14;19.10;99.90
15556;DHT22;7879;48.660;9.116;2023-07-09T01:37:42;19.10;99.90
15556;DHT22;7879;48.660;9.116;2023-07-09T01:40:12;19.00;99.90
15556;DHT22;7879;48.660;9.116;2023-07-09T01:42:58;18.90;99.90
15556;DHT22;7879;48.660;9.116;2023-07-09T01:45:26;19.00;99.90
15556;DHT22;7879;48.660;9.116;2023-07-09T01:47:54;18.90;99.90
15556;DHT22;7879;48.660;9.116;2023-07-09T01:50:22;19.00;99.90
15556;DHT22;7879;48.660;9.116;2023-07-09T01:52:51;19.00;99.90
15556;DHT22;7879;48.660;9.116;2023-07-09T01:55:18;19.00;99.90
15556;DHT22;7879;48.660;9.116;2023-07-09T01:57:45;18.90;99.90
15556;DHT22;7879;48.660;9.116;2023-07-09T02:00:14;18.80;99.90
15556;DHT22;7879;48.660;9.116;2023-07-09T02:02:43;18.80;99.90
15556;DHT22;7879;48.660;9.116;2023-07-09T02:05:12;18.80;99.90
15556;DHT22;7879;48.660;9.116;2023-07-09T02:07:39;18.80;99.90
15556;DHT22;7879;48.660;9.116;2023-07-09T02:10:07;18.70;99.90
15556;DHT22;7879;48.660;9.116;2023-07-09T02:12:34;18.60;99.90
15556;DHT22;7879;48.660;9.116;2023-07-09T02:15:01;18.60;99.90
15556;DHT22;7879;48.660;9.116;2023-07-09T02:17:27;18.50;99.90
15556;DHT22;7879;48.660;9.116;2023-07-09T02:19:54;18.40;99.90
15556;DHT22;7879;48.660;9.116;2023-07-09T02:22:21;18.40;99.90
15556;DHT22;7879;48.660;9.116;2023-07-09T02:24:48;18.40;99.90
15556;DHT22;7879;48.660;9.116;2023-07-09T02:27:17;18.50;99.90
15556;DHT22;7879;48.660;9.116;2023-07-09T02:29:44;18.40;99.90
15556;DHT22;7879;48.660;9.116;2023-07-09T02:32:21;18.50;99.90
15556;DHT22;7879;48.660;9.116;2023-07-09T02:34:49;18.40;99.90
15556;DHT22;7879;48.660;9.116;2023-07-09T02:37:23;18.40;99.90
15556;DHT22;7879;48.660;9.116;2023-07-09T02:39:50;18.40;99.90
15556;DHT22;7879;48.660;9.116;2023-07-09T02:42:20;18.40;99.90
15556;DHT22;7879;48.660;9.116;2023-07-09T02:44:47;18.30;99.90
15556;DHT22;7879;48.660;9.116;2023-07-09T02:47:14;18.20;99.90
15556;DHT22;7879;48.660;9.116;2023-07-09T02:49:42;18.20;99.90
15556;DHT22;7879;48.660;9.116;2023-07-09T02:52:09;18.10;99.90
15556;DHT22;7879;48.660;9.116;2023-07-09T02:54:36;18.20;99.90
15556;DHT22;7879;48.660;9.116;2023-07-09T02:57:03;18.20;99.90
15556;DHT22;7879;48.660;9.116;2023-07-09T02:59:30;18.10;99.90
15556;DHT22;7879;48.660;9.116;2023-07-09T03:01:57;18.00;99.90
15556;DHT22;7879;48.660;9.116;2023-07-09T03:04:24;18.10;99.90
15556;DHT22;7879;48.660;9.116;2023-07-09T03:06:51;18.00;99.90
15556;DHT22;7879;48.660;9.116;2023-07-09T03:09:19;17.90;99.90
15556;DHT22;7879;48.660;9.116;2023-07-09T03:11:46;17.90;99.90
15556;DHT22;7879;48.660;9.116;2023-07-09T03:14:13;17.80;99.90
15556;DHT22;7879;48.660;9.116;2023-07-09T03:16:40;17.80;99.90
15556;DHT22;7879;48.660;9.116;2023-07-09T03:19:07;17.70;99.90
15556;DHT22;7879;48.660;9.116;2023-07-09T03:21:34;17.80;99.90
15556;DHT22;7879;48.660;9.116;2023-07-09T03:24:02;17.70;99.90
15556;DHT22;7879;48.660;9.116;2023-07-09T03:26:29;17.70;99.90
15556;DHT22;7879;48.660;9.116;2023-07-09T03:28:56;17.70;99.90
15556;DHT22;7879;48.660;9.116;2023-07-09T03:31:23;17.70;99.90
15556;DHT22;7879;48.660;9.116;2023-07-09T03:33:51;17.70;99.90
15556;DHT22;7879;48.660;9.116;2023-07-09T03:36:18;17.80;99.90
15556;DHT22;7879;48.660;9.116;2023-07-09T03:38:47;17.70;99.90
15556;DHT22;7879;48.660;9.116;2023-07-09T03:41:14;17.60;99.90
15556;DHT22;7879;48.660;9.116;2023-07-09T03:43:41;17.60;99.90
15556;DHT22;7879;48.660;9.116;2023-07-09T03:46:08;17.50;99.90
15556;DHT22;7879;48.660;9.116;2023-07-09T03:48:35;17.50;99.90
15556;DHT22;7879;48.660;9.116;2023-07-09T03:51:02;17.50;99.90
15556;DHT22;7879;48.660;9.116;2023-07-09T03:53:29;17.40;99.90
15556;DHT22;7879;48.660;9.116;2023-07-09T03:55:56;17.40;99.90
15556;DHT22;7879;48.660;9.116;2023-07-09T03:58:23;17.40;99.90
15556;DHT22;7879;48.660;9.116;2023-07-09T04:00:53;17.40;99.90
15556;DHT22;7879;48.660;9.116;2023-07-09T04:03:21;17.40;99.90
15556;DHT22;7879;48.660;9.116;2023-07-09T04:05:49;17.40;99.90
15556;DHT22;7879;48.660;9.116;2023-07-09T04:08:16;17.40;99.90
15556;DHT22;7879;48.660;9.116;2023-07-09T04:10:43;17.50;99.90
15556;DHT22;7879;48.660;9.116;2023-07-09T04:13:10;17.40;99.90
15556;DHT22;7879;48.660;9.116;2023-07-09T04:15:36;17.30;99.90
15556;DHT22;7879;48.660;9.116;2023-07-09T04:18:03;17.30;99.90
15556;DHT22;7879;48.660;9.116;2023-07-09T04:20:30;17.30;99.90
15556;DHT22;7879;48.660;9.116;2023-07-09T04:22:57;17.40;99.90
15556;DHT22;7879;48.660;9.116;2023-07-09T04:25:24;17.40;99.90
15556;DHT22;7879;48.660;9.116;2023-07-09T04:27:51;17.40;99.90
15556;DHT22;7879;48.660;9.116;2023-07-09T04:30:18;17.50;99.90
15556;DHT22;7879;48.660;9.116;2023-07-09T04:32:45;17.60;99.90
15556;DHT22;7879;48.660;9.116;2023-07-09T04:35:13;17.60;99.90
15556;DHT22;7879;48.660;9.116;2023-07-09T04:37:41;17.60;99.90
15556;DHT22;7879;48.660;9.116;2023-07-09T04:40:09;17.60;99.90
15556;DHT22;7879;48.660;9.116;2023-07-09T04:42:39;17.70;99.90
15556;DHT22;7879;48.660;9.116;2023-07-09T04:45:08;17.70;99.90
15556;DHT22;7879;48.660;9.116;2023-07-09T04:47:36;17.70;99.90
15556;DHT22;7879;48.660;9.116;2023-07-09T04:50:05;17.70;99.90
15556;DHT22;7879;48.660;9.116;2023-07-09T04:52:32;17.70;99.90
15556;DHT22;7879;48.660;9.116;2023-07-09T04:54:59;17.80;99.90
15556;DHT22;7879;48.660;9.116;2023-07-09T04:57:28;17.80;99.90
15556;DHT22;7879;48.660;9.116;2023-07-09T04:59:55;17.90;99.90
15556;DHT22;7879;48.660;9.116;2023-07-09T05:02:22;17.80;99.90
15556;DHT22;7879;48.660;9.116;2023-07-09T05:04:49;17.80;99.90
15556;DHT22;7879;48.660;9.116;2023-07-09T05:07:16;17.80;99.90
15556;DHT22;7879;48.660;9.116;2023-07-09T05:09:43;17.90;99.90
15556;DHT22;7879;48.660;9.116;2023-07-09T05:12:10;18.00;99.90
15556;DHT22;7879;48.660;9.116;2023-07-09T05:14:37;18.10;99.90
15556;DHT22;7879;48.660;9.116;2023-07-09T05:17:05;18.20;99.90
15556;DHT22;7879;48.660;9.116;2023-07-09T05:19:32;18.30;99.90
15556;DHT22;7879;48.660;9.116;2023-07-09T05:21:59;18.30;99.90
15556;DHT22;7879;48.660;9.116;2023-07-09T05:24:26;18.40;99.90
15556;DHT22;7879;48.660;9.116;2023-07-09T05:26:54;18.50;99.90
15556;DHT22;7879;48.660;9.116;2023-07-09T05:29:22;18.60;99.90
15556;DHT22;7879;48.660;9.116;2023-07-09T05:31:48;18.60;99.90
15556;DHT22;7879;48.660;9.116;2023-07-09T05:34:15;18.70;99.90
15556;DHT22;7879;48.660;9.116;2023-07-09T05:36:42;18.70;99.90
15556;DHT22;7879;48.660;9.116;2023-07-09T05:39:09;18.70;99.90
15556;DHT22;7879;48.660;9.116;2023-07-09T05:41:36;18.80;99.90
15556;DHT22;7879;48.660;9.116;2023-07-09T05:44:03;18.80;99.90
15556;DHT22;7879;48.660;9.116;2023-07-09T05:46:34;18.80;99.90
15556;DHT22;7879;48.660;9.116;2023-07-09T05:49:09;18.90;99.90
15556;DHT22;7879;48.660;9.116;2023-07-09T05:51:38;19.00;99.90
15556;DHT22;7879;48.660;9.116;2023-07-09T05:54:05;19.10;99.90
15556;DHT22;7879;48.660;9.116;2023-07-09T05:56:32;19.10;99.90
15556;DHT22;7879;48.660;9.116;2023-07-09T05:58:59;19.20;99.90
15556;DHT22;7879;48.660;9.116;2023-07-09T06:01:26;19.40;99.90
15556;DHT22;7879;48.660;9.116;2023-07-09T06:03:54;19.50;99.90
15556;DHT22;7879;48.660;9.116;2023-07-09T06:06:21;19.60;99.90
15556;DHT22;7879;48.660;9.116;2023-07-09T06:08:48;19.80;99.90
15556;DHT22;7879;48.660;9.116;2023-07-09T06:11:16;19.90;99.90
15556;DHT22;7879;48.660;9.116;2023-07-09T06:13:46;20.00;99.90
15556;DHT22;7879;48.660;9.116;2023-07-09T06:16:14;20.00;99.90
15556;DHT22;7879;48.660;9.116;2023-07-09T06:18:41;20.10;99.90
15556;DHT22;7879;48.660;9.116;2023-07-09T06:21:08;20.20;99.90
15556;DHT22;7879;48.660;9.116;2023-07-09T06:23:36;20.30;99.90
15556;DHT22;7879;48.660;9.116;2023-07-09T06:26:03;20.40;99.90
15556;DHT22;7879;48.660;9.116;2023-07-09T06:28:32;20.60;99.90
15556;DHT22;7879;48.660;9.116;2023-07-09T06:30:59;20.60;99.90
15556;DHT22;7879;48.660;9.116;2023-07-09T06:33:27;20.70;99.90
15556;DHT22;7879;48.660;9.116;2023-07-09T06:35:57;20.90;99.90
15556;DHT22;7879;48.660;9.116;2023-07-09T06:38:25;21.00;99.90
15556;DHT22;7879;48.660;9.116;2023-07-09T06:40:51;21.20;99.90
15556;DHT22;7879;48.660;9.116;2023-07-09T06:43:19;21.20;99.90
15556;DHT22;7879;48.660;9.116;2023-07-09T06:45:56;21.30;99.90
15556;DHT22;7879;48.660;9.116;2023-07-09T06:48:25;21.40;99.90
15556;DHT22;7879;48.660;9.116;2023-07-09T06:50:54;21.50;99.90
15556;DHT22;7879;48.660;9.116;2023-07-09T06:53:22;21.50;99.90
15556;DHT22;7879;48.660;9.116;2023-07-09T06:55:49;21.60;99.90
15556;DHT22;7879;48.660;9.116;2023-07-09T06:58:17;21.70;99.90
15556;DHT22;7879;48.660;9.116;2023-07-09T07:00:45;21.70;99.90
15556;DHT22;7879;48.660;9.116;2023-07-09T07:03:12;21.80;99.90
15556;DHT22;7879;48.660;9.116;2023-07-09T07:05:46;22.00;99.90
15556;DHT22;7879;48.660;9.116;2023-07-09T07:08:17;22.10;99.90
15556;DHT22;7879;48.660;9.116;2023-07-09T07:10:45;22.30;99.90
15556;DHT22;7879;48.660;9.116;2023-07-09T07:13:13;22.40;99.90
15556;DHT22;7879;48.660;9.116;2023-07-09T07:15:41;22.50;99.90
15556;DHT22;7879;48.660;9.116;2023-07-09T07:18:08;22.60;99.90
15556;DHT22;7879;48.660;9.116;2023-07-09T07:20:34;22.80;99.90
15556;DHT22;7879;48.660;9.116;2023-07-09T07:23:01;22.90;99.90
15556;DHT22;7879;48.660;9.116;2023-07-09T07:25:28;23.10;99.90
15556;DHT22;7879;48.660;9.116;2023-07-09T07:27:57;23.20;99.90
15556;DHT22;7879;48.660;9.116;2023-07-09T07:30:23;23.30;99.90
15556;DHT22;7879;48.660;9.116;2023-07-09T07:32:52;23.30;99.90
15556;DHT22;7879;48.660;9.116;2023-07-09T07:35:19;23.50;99.90
15556;DHT22;7879;48.660;9.116;2023-07-09T07:37:46;23.70;99.90
15556;DHT22;7879;48.660;9.116;2023-07-09T07:40:13;23.80;99.90
15556;DHT22;7879;48.660;9.116;2023-07-09T07:42:40;23.90;99.90
15556;DHT22;7879;48.660;9.116;2023-07-09T07:45:07;24.00;99.90
15556;DHT22;7879;48.660;9.116;2023-07-09T07:47:34;24.20;99.90
15556;DHT22;7879;48.660;9.116;2023-07-09T07:50:04;24.30;99.90
15556;DHT22;7879;48.660;9.116;2023-07-09T07:52:31;24.30;99.90
15556;DHT22;7879;48.660;9.116;2023-07-09T07:54:58;24.40;99.90
15556;DHT22;7879;48.660;9.116;2023-07-09T07:57:25;24.40;99.90
15556;DHT22;7879;48.660;9.116;2023-07-09T07:59:52;24.50;99.90
15556;DHT22;7879;48.660;9.116;2023-07-09T08:02:19;24.50;99.90
15556;DHT22;7879;48.660;9.116;2023-07-09T08:04:46;24.70;99.90
15556;DHT22;7879;48.660;9.116;2023-07-09T08:07:13;24.70;99.90
15556;DHT22;7879;48.660;9.116;2023-07-09T08:09:40;24.70;99.90
15556;DHT22;7879;48.660;9.116;2023-07-09T08:12:07;24.90;99.90
15556;DHT22;7879;48.660;9.116;2023-07-09T08:14:42;25.10;99.90
15556;DHT22;7879;48.660;9.116;2023-07-09T08:17:11;25.30;99.90
15556;DHT22;7879;48.660;9.116;2023-07-09T08:19:50;25.40;99.90
15556;DHT22;7879;48.660;9.116;2023-07-09T08:22:17;25.40;99.90
15556;DHT22;7879;48.660;9.116;2023-07-09T08:24:44;25.50;99.90
15556;DHT22;7879;48.660;9.116;2023-07-09T08:27:11;25.60;99.90
15556;DHT22;7879;48.660;9.116;2023-07-09T08:29:38;25.60;99.90
15556;DHT22;7879;48.660;9.116;2023-07-09T08:32:07;25.80;99.90
15556;DHT22;7879;48.660;9.116;2023-07-09T08:34:34;26.00;99.90
15556;DHT22;7879;48.660;9.116;2023-07-09T08:37:02;26.20;99.60
15556;DHT22;7879;48.660;9.116;2023-07-09T08:39:29;26.30;99.50
15556;DHT22;7879;48.660;9.116;2023-07-09T08:47:43;26.70;98.70
15556;DHT22;7879;48.660;9.116;2023-07-09T08:50:15;26.90;98.00
15556;DHT22;7879;48.660;9.116;2023-07-09T08:52:44;27.00;97.80
15556;DHT22;7879;48.660;9.116;2023-07-09T08:55:17;27.20;97.10
15556;DHT22;7879;48.660;9.116;2023-07-09T08:57:47;27.30;97.10
15556;DHT22;7879;48.660;9.116;2023-07-09T09:00:55;27.50;96.40
15556;DHT22;7879;48.660;9.116;2023-07-09T09:03:44;27.80;95.30
15556;DHT22;7879;48.660;9.116;2023-07-09T09:06:20;28.00;95.10
15556;DHT22;7879;48.660;9.116;2023-07-09T09:11:47;28.30;94.40
15556;DHT22;7879;48.660;9.116;2023-07-09T09:16:54;28.90;93.20
15556;DHT22;7879;48.660;9.116;2023-07-09T09:21:56;29.30;92.70
15556;DHT22;7879;48.660;9.116;2023-07-09T09:24:31;29.60;92.20
15556;DHT22;7879;48.660;9.116;2023-07-09T09:27:01;29.70;91.40
15556;DHT22;7879;48.660;9.116;2023-07-09T09:29:28;29.80;91.40
15556;DHT22;7879;48.660;9.116;2023-07-09T09:31:56;29.90;91.80
15556;DHT22;7879;48.660;9.116;2023-07-09T09:34:29;30.10;91.30
15556;DHT22;7879;48.660;9.116;2023-07-09T09:36:58;30.40;90.80
15556;DHT22;7879;48.660;9.116;2023-07-09T09:39:25;30.50;90.00
15556;DHT22;7879;48.660;9.116;2023-07-09T09:41:57;30.60;89.20
15556;DHT22;7879;48.660;9.116;2023-07-09T09:44:27;30.80;88.50
15556;DHT22;7879;48.660;9.116;2023-07-09T09:46:57;30.90;87.20
15556;DHT22;7879;48.660;9.116;2023-07-09T09:49:27;31.00;85.50
15556;DHT22;7879;48.660;9.116;2023-07-09T09:51:54;31.10;84.80
15556;DHT22;7879;48.660;9.116;2023-07-09T09:54:27;31.20;82.90
15556;DHT22;7879;48.660;9.116;2023-07-09T09:56:57;31.40;83.30
15556;DHT22;7879;48.660;9.116;2023-07-09T09:59:30;31.50;79.60
15556;DHT22;7879;48.660;9.116;2023-07-09T10:02:00;31.70;79.80
15556;DHT22;7879;48.660;9.116;2023-07-09T10:04:27;31.80;79.30
15556;DHT22;7879;48.660;9.116;2023-07-09T10:07:03;31.90;78.80
15556;DHT22;7879;48.660;9.116;2023-07-09T10:17:28;32.40;72.00
15556;DHT22;7879;48.660;9.116;2023-07-09T10:30:41;33.10;66.90
15556;DHT22;7879;48.660;9.116;2023-07-09T10:33:16;33.20;64.80
15556;DHT22;7879;48.660;9.116;2023-07-09T10:35:59;33.30;63.30
15556;DHT22;7879;48.660;9.116;2023-07-09T10:41:22;33.50;62.00
15556;DHT22;7879;48.660;9.116;2023-07-09T10:43:58;33.50;61.30
15556;DHT22;7879;48.660;9.116;2023-07-09T10:46:30;33.60;59.50
15556;DHT22;7879;48.660;9.116;2023-07-09T10:49:00;33.60;59.10
15556;DHT22;7879;48.660;9.116;2023-07-09T10:51:42;33.70;58.70
15556;DHT22;7879;48.660;9.116;2023-07-09T10:54:16;33.80;58.60
15556;DHT22;7879;48.660;9.116;2023-07-09T10:56:48;33.90;58.60
15556;DHT22;7879;48.660;9.116;2023-07-09T10:59:27;34.10;58.20
15556;DHT22;7879;48.660;9.116;2023-07-09T11:04:44;34.20;57.90
15556;DHT22;7879;48.660;9.116;2023-07-09T11:07:16;34.30;60.10
15556;DHT22;7879;48.660;9.116;2023-07-09T11:09:46;34.40;54.70
15556;DHT22;7879;48.660;9.116;2023-07-09T11:12:19;34.40;55.60
15556;DHT22;7879;48.660;9.116;2023-07-09T11:17:44;34.50;57.90
15556;DHT22;7879;48.660;9.116;2023-07-09T11:25:42;34.40;56.80
15556;DHT22;7879;48.660;9.116;2023-07-09T11:28:09;34.40;56.80
15556;DHT22;7879;48.660;9.116;2023-07-09T11:30:53;34.50;54.60
15556;DHT22;7879;48.660;9.116;2023-07-09T11:33:29;34.70;55.30
15556;DHT22;7879;48.660;9.116;2023-07-09T11:36:11;34.70;55.70
15556;DHT22;7879;48.660;9.116;2023-07-09T11:38:44;34.90;55.30
15556;DHT22;7879;48.660;9.116;2023-07-09T11:41:41;34.90;55.20
15556;DHT22;7879;48.660;9.116;2023-07-09T11:44:19;35.10;54.60
15556;DHT22;7879;48.660;9.116;2023-07-09T11:47:08;35.10;54.80
15556;DHT22;7879;48.660;9.116;2023-07-09T11:49:52;35.20;53.70
15556;DHT22;7879;48.660;9.116;2023-07-09T11:54:54;35.40;51.60
15556;DHT22;7879;48.660;9.116;2023-07-09T11:57:22;35.50;51.80
15556;DHT22;7879;48.660;9.116;2023-07-09T11:59:49;35.60;51.90
15556;DHT22;7879;48.660;9.116;2023-07-09T12:02:20;35.50;52.10
15556;DHT22;7879;48.660;9.116;2023-07-09T12:04:49;35.50;53.40
15556;DHT22;7879;48.660;9.116;2023-07-09T12:07:17;35.40;53.60
15556;DHT22;7879;48.660;9.116;2023-07-09T12:09:48;35.40;54.00
15556;DHT22;7879;48.660;9.116;2023-07-09T12:12:25;35.50;53.60
15556;DHT22;7879;48.660;9.116;2023-07-09T12:14:52;35.50;52.60
15556;DHT22;7879;48.660;9.116;2023-07-09T12:17:19;35.50;51.50
15556;DHT22;7879;48.660;9.116;2023-07-09T12:19:51;35.40;51.80
15556;DHT22;7879;48.660;9.116;2023-07-09T12:22:20;35.30;52.20
15556;DHT22;7879;48.660;9.116;2023-07-09T12:24:49;35.40;52.30
15556;DHT22;7879;48.660;9.116;2023-07-09T12:27:27;35.60;52.40
15556;DHT22;7879;48.660;9.116;2023-07-09T12:30:09;35.70;50.90
15556;DHT22;7879;48.660;9.116;2023-07-09T12:32:43;35.70;50.80
15556;DHT22;7879;48.660;9.116;2023-07-09T12:35:15;35.60;49.40
15556;DHT22;7879;48.660;9.116;2023-07-09T12:37:43;35.50;49.90
15556;DHT22;7879;48.660;9.116;2023-07-09T12:40:20;35.60;50.40
15556;DHT22;7879;48.660;9.116;2023-07-09T12:42:48;35.70;48.40
15556;DHT22;7879;48.660;9.116;2023-07-09T12:45:17;35.70;48.30
15556;DHT22;7879;48.660;9.116;2023-07-09T12:47:49;35.70;48.50
15556;DHT22;7879;48.660;9.116;2023-07-09T12:52:55;35.70;48.70
15556;DHT22;7879;48.660;9.116;2023-07-09T12:55:24;35.70;49.00
15556;DHT22;7879;48.660;9.116;2023-07-09T12:57:56;35.50;48.20
15556;DHT22;7879;48.660;9.116;2023-07-09T13:00:28;35.50;48.90
15556;DHT22;7879;48.660;9.116;2023-07-09T13:02:58;35.50;49.50
15556;DHT22;7879;48.660;9.116;2023-07-09T13:05:26;35.60;49.80
15556;DHT22;7879;48.660;9.116;2023-07-09T13:07:59;35.50;49.70
15556;DHT22;7879;48.660;9.116;2023-07-09T13:10:29;35.50;49.90
15556;DHT22;7879;48.660;9.116;2023-07-09T13:13:04;35.50;49.60
15556;DHT22;7879;48.660;9.116;2023-07-09T13:18:05;35.60;47.20
15556;DHT22;7879;48.660;9.116;2023-07-09T13:20:36;35.50;46.80
15556;DHT22;7879;48.660;9.116;2023-07-09T13:23:16;35.40;46.40
15556;DHT22;7879;48.660;9.116;2023-07-09T13:25:44;35.50;46.70
15556;DHT22;7879;48.660;9.116;2023-07-09T13:28:20;35.50;45.80
15556;DHT22;7879;48.660;9.116;2023-07-09T13:30:50;35.70;46.30
15556;DHT22;7879;48.660;9.116;2023-07-09T13:33:18;35.60;46.30
15556;DHT22;7879;48.660;9.116;2023-07-09T13:35:45;35.60;45.70
15556;DHT22;7879;48.660;9.116;2023-07-09T13:38:17;35.60;44.90
15556;DHT22;7879;48.660;9.116;2023-07-09T13:40:46;35.50;45.00
15556;DHT22;7879;48.660;9.116;2023-07-09T13:43:15;35.50;45.70
15556;DHT22;7879;48.660;9.116;2023-07-09T13:45:42;35.60;45.50
15556;DHT22;7879;48.660;9.116;2023-07-09T13:48:15;35.60;45.80
15556;DHT22;7879;48.660;9.116;2023-07-09T13:50:44;35.70;47.20
15556;DHT22;7879;48.660;9.116;2023-07-09T13:53:15;35.80;47.50
15556;DHT22;7879;48.660;9.116;2023-07-09T13:55:43;35.80;47.80
15556;DHT22;7879;48.660;9.116;2023-07-09T13:58:12;35.70;47.10
15556;DHT22;7879;48.660;9.116;2023-07-09T14:00:40;35.70;47.60
15556;DHT22;7879;48.660;9.116;2023-07-09T14:05:42;35.70;46.70
15556;DHT22;7879;48.660;9.116;2023-07-09T14:08:09;35.70;47.40
15556;DHT22;7879;48.660;9.116;2023-07-09T14:10:39;35.80;48.20
15556;DHT22;7879;48.660;9.116;2023-07-09T14:13:11;35.80;48.40
15556;DHT22;7879;48.660;9.116;2023-07-09T14:15:40;35.80;47.80
15556;DHT22;7879;48.660;9.116;2023-07-09T14:18:13;35.50;47.70
15556;DHT22;7879;48.660;9.116;2023-07-09T14:20:40;35.40;47.70
15556;DHT22;7879;48.660;9.116;2023-07-09T14:23:14;35.30;47.70
15556;DHT22;7879;48.660;9.116;2023-07-09T14:25:42;35.30;47.50
15556;DHT22;7879;48.660;9.116;2023-07-09T14:28:18;35.20;47.20
15556;DHT22;7879;48.660;9.116;2023-07-09T14:30:48;35.20;47.10
15556;DHT22;7879;48.660;9.116;2023-07-09T14:33:17;35.20;47.70
15556;DHT22;7879;48.660;9.116;2023-07-09T14:35:47;35.20;47.20
15556;DHT22;7879;48.660;9.116;2023-07-09T14:38:24;35.40;46.70
15556;DHT22;7879;48.660;9.116;2023-07-09T14:40:56;35.30;46.00
15556;DHT22;7879;48.660;9.116;2023-07-09T14:43:25;35.20;45.90
15556;DHT22;7879;48.660;9.116;2023-07-09T14:45:52;35.20;46.10
15556;DHT22;7879;48.660;9.116;2023-07-09T14:48:20;35.20;46.40
15556;DHT22;7879;48.660;9.116;2023-07-09T14:50:48;35.30;45.40
15556;DHT22;7879;48.660;9.116;2023-07-09T14:53:21;35.30;45.80
15556;DHT22;7879;48.660;9.116;2023-07-09T14:55:50;35.20;46.10
15556;DHT22;7879;48.660;9.116;2023-07-09T14:58:19;35.20;46.10
15556;DHT22;7879;48.660;9.116;2023-07-09T15:00:46;35.30;47.30
15556;DHT22;7879;48.660;9.116;2023-07-09T15:03:24;35.30;45.30
15556;DHT22;7879;48.660;9.116;2023-07-09T15:05:53;35.40;45.40
15556;DHT22;7879;48.660;9.116;2023-07-09T15:08:24;35.40;45.00
15556;DHT22;7879;48.660;9.116;2023-07-09T15:10:53;35.40;45.20
15556;DHT22;7879;48.660;9.116;2023-07-09T15:13:31;35.30;45.40
15556;DHT22;7879;48.660;9.116;2023-07-09T15:16:03;35.30;46.30
15556;DHT22;7879;48.660;9.116;2023-07-09T15:18:31;35.40;46.60
15556;DHT22;7879;48.660;9.116;2023-07-09T15:21:02;35.40;44.90
15556;DHT22;7879;48.660;9.116;2023-07-09T15:23:30;35.30;45.10
15556;DHT22;7879;48.660;9.116;2023-07-09T15:25:58;35.30;45.50
15556;DHT22;7879;48.660;9.116;2023-07-09T15:28:25;35.30;46.00
15556;DHT22;7879;48.660;9.116;2023-07-09T15:30:52;35.20;44.50
15556;DHT22;7879;48.660;9.116;2023-07-09T15:33:20;35.10;45.30
15556;DHT22;7879;48.660;9.116;2023-07-09T15:35:48;35.10;45.70
15556;DHT22;7879;48.660;9.116;2023-07-09T15:38:31;35.00;45.60
15556;DHT22;7879;48.660;9.116;2023-07-09T15:41:00;35.00;45.40
15556;DHT22;7879;48.660;9.116;2023-07-09T15:43:28;34.90;45.10
15556;DHT22;7879;48.660;9.116;2023-07-09T15:45:56;34.80;46.00
15556;DHT22;7879;48.660;9.116;2023-07-09T15:48:30;34.80;45.90
15556;DHT22;7879;48.660;9.116;2023-07-09T15:50:58;34.60;46.10
15556;DHT22;7879;48.660;9.116;2023-07-09T15:53:25;34.60;46.40
15556;DHT22;7879;48.660;9.116;2023-07-09T15:55:58;34.50;45.90
15556;DHT22;7879;48.660;9.116;2023-07-09T15:58:28;34.50;46.40
15556;DHT22;7879;48.660;9.116;2023-07-09T16:00:55;34.50;46.30
15556;DHT22;7879;48.660;9.116;2023-07-09T16:03:22;34.50;46.50
15556;DHT22;7879;48.660;9.116;2023-07-09T16:05:49;34.50;46.20
15556;DHT22;7879;48.660;9.116;2023-07-09T16:08:16;34.40;46.40
15556;DHT22;7879;48.660;9.116;2023-07-09T16:10:43;34.40;45.90
15556;DHT22;7879;48.660;9.116;2023-07-09T16:13:21;34.40;45.80
15556;DHT22;7879;48.660;9.116;2023-07-09T16:15:49;34.30;47.20
15556;DHT22;7879;48.660;9.116;2023-07-09T16:18:17;34.30;48.30
15556;DHT22;7879;48.660;9.116;2023-07-09T16:20:44;34.20;48.70
15556;DHT22;7879;48.660;9.116;2023-07-09T16:23:20;34.20;49.30
15556;DHT22;7879;48.660;9.116;2023-07-09T16:25:48;34.20;48.10
15556;DHT22;7879;48.660;9.116;2023-07-09T16:28:18;34.20;46.60
15556;DHT22;7879;48.660;9.116;2023-07-09T16:30:47;34.20;47.00
15556;DHT22;7879;48.660;9.116;2023-07-09T16:33:14;34.20;47.30
15556;DHT22;7879;48.660;9.116;2023-07-09T16:35:42;34.10;47.30
15556;DHT22;7879;48.660;9.116;2023-07-09T16:38:12;34.10;46.90
15556;DHT22;7879;48.660;9.116;2023-07-09T16:40:39;34.00;46.20
15556;DHT22;7879;48.660;9.116;2023-07-09T16:43:17;34.00;46.70
15556;DHT22;7879;48.660;9.116;2023-07-09T16:45:45;34.00;47.00
15556;DHT22;7879;48.660;9.116;2023-07-09T16:48:17;34.00;46.80
15556;DHT22;7879;48.660;9.116;2023-07-09T16:50:45;34.00;47.10
15556;DHT22;7879;48.660;9.116;2023-07-09T16:53:14;34.00;46.70
15556;DHT22;7879;48.660;9.116;2023-07-09T16:55:41;34.00;46.50
15556;DHT22;7879;48.660;9.116;2023-07-09T16:58:35;33.90;46.90